Time;durP1;ratioP1;P1;durP2;ratioP2;P2;SDS_P1;SDS_P2;PMS_P1;PMS_P2;Temp;Humidity;BMP_temperature;BMP_pressure;BME280_temperature;BME280_humidity;BME280_pressure;Samples;Min_cycle;Max_cycle;Signal;HPM_P1;HPM_P2
2023/10/11 00:00:40;;;;;;;;;;;;;;;13.03;100.00;96903.94;5064280;28;19943;-76
2023/10/11 00:03:17;;;;;;;;;;;;;;;13.01;100.00;96892.81;5064319;28;19939;-77
2023/10/11 00:05:44;;;;;;;;;;;;;;;12.99;100.00;96889.59;5064743;28;19930;-76
2023/10/11 00:08:13;;;;;;;;;;;;;;;12.96;100.00;96888.22;5064115;28;20122;-76
2023/10/11 00:10:45;;;;;;;;;;;;;;;12.93;100.00;96893.13;5064714;28;20119;-77
2023/10/11 00:13:11;;;;;;;;;;;;;;;12.89;100.00;96895.41;5064932;28;19985;-76
2023/10/11 00:15:37;;;;;;;;;;;;;;;12.86;100.00;96906.34;5065570;28;19919;-74
2023/10/11 00:18:03;;;;;;;;;;;;;;;12.85;100.00;96896.03;5063508;28;19929;-74
2023/10/11 00:20:46;;;;;;;;;;;;;;;12.82;100.00;96905.19;5064061;28;19967;-74
2023/10/11 00:23:13;;;;;;;;;;;;;;;12.79;100.00;96908.28;5064703;28;19937;-74
2023/10/11 00:25:39;;;;;;;;;;;;;;;12.78;100.00;96904.81;5063949;28;19941;-75
2023/10/11 00:28:08;;;;;;;;;;;;;;;12.78;100.00;96901.38;5064830;28;19941;-75
2023/10/11 00:30:40;;;;;;;;;;;;;;;12.76;100.00;96898.19;5064148;28;20215;-73
2023/10/11 00:33:09;;;;;;;;;;;;;;;12.74;100.00;96898.38;5063825;28;19939;-74
2023/10/11 00:35:47;;;;;;;;;;;;;;;12.72;100.00;96895.16;5063776;28;19962;-74
2023/10/11 00:38:20;;;;;;;;;;;;;;;12.68;100.00;96893.19;5063126;28;19937;-74
2023/10/11 00:41:00;;;;;;;;;;;;;;;12.65;100.00;96891.03;5063853;28;20124;-75
2023/10/11 00:43:33;;;;;;;;;;;;;;;12.65;100.00;96885.75;5064274;28;19946;-75
2023/10/11 00:45:59;;;;;;;;;;;;;;;12.67;100.00;96888.97;5063766;28;19932;-75
2023/10/11 00:48:25;;;;;;;;;;;;;;;12.67;100.00;96881.09;5063619;28;19983;-74
2023/10/11 00:50:53;;;;;;;;;;;;;;;12.66;100.00;96874.19;5063643;28;19940;-74
2023/10/11 00:53:19;;;;;;;;;;;;;;;12.65;100.00;96876.03;5064462;28;20204;-75
2023/10/11 00:55:45;;;;;;;;;;;;;;;12.63;100.00;96869.41;5063607;28;19935;-74
2023/10/11 00:58:15;;;;;;;;;;;;;;;12.57;100.00;96871.06;5063642;28;19938;-74
2023/10/11 01:00:42;;;;;;;;;;;;;;;12.52;100.00;96874.34;5063626;28;19934;-73
2023/10/11 01:03:08;;;;;;;;;;;;;;;12.48;100.00;96867.94;5062436;28;19938;-74
2023/10/11 01:05:43;;;;;;;;;;;;;;;12.46;100.00;96866.53;5063470;28;20148;-73
2023/10/11 01:08:10;;;;;;;;;;;;;;;12.45;100.00;96860.50;5063944;28;19944;-76
2023/10/11 01:10:37;;;;;;;;;;;;;;;12.45;100.00;96855.22;5063494;28;19929;-73
2023/10/11 01:13:03;;;;;;;;;;;;;;;12.46;100.00;96854.19;5063537;28;19931;-73
2023/10/11 01:15:29;;;;;;;;;;;;;;;12.46;100.00;96859.44;5063503;28;20271;-74
2023/10/11 01:17:56;;;;;;;;;;;;;;;12.46;100.00;96851.56;5063393;28;20002;-73
2023/10/11 01:20:22;;;;;;;;;;;;;;;12.47;100.00;96860.25;5064282;28;19943;-74
2023/10/11 01:22:48;;;;;;;;;;;;;;;12.45;100.00;96843.88;5063383;28;19935;-75
2023/10/11 01:25:20;;;;;;;;;;;;;;;12.45;100.00;96852.59;5063825;28;19951;-74
2023/10/11 01:27:47;;;;;;;;;;;;;;;12.46;100.00;96845.50;5063379;28;19938;-74
2023/10/11 01:30:13;;;;;;;;;;;;;;;12.46;100.00;96842.88;5064337;28;19938;-73
2023/10/11 01:32:41;;;;;;;;;;;;;;;12.46;100.00;96850.75;5067053;28;19936;-75
2023/10/11 01:35:10;;;;;;;;;;;;;;;12.46;100.00;96842.88;5067707;28;19952;-75
2023/10/11 01:37:43;;;;;;;;;;;;;;;12.45;100.00;96849.13;5066947;28;20030;-75
2023/10/11 01:40:10;;;;;;;;;;;;;;;12.44;100.00;96845.72;5067170;28;19945;-74
2023/10/11 01:42:41;;;;;;;;;;;;;;;12.44;100.00;96839.66;5067414;28;19936;-75
2023/10/11 01:45:08;;;;;;;;;;;;;;;12.42;100.00;96842.50;5066700;28;19961;-74
2023/10/11 01:47:34;;;;;;;;;;;;;;;12.39;100.00;96843.75;5066769;28;19983;-75
2023/10/11 01:50:00;;;;;;;;;;;;;;;12.36;100.00;96841.53;5066677;28;19949;-74
2023/10/11 01:52:26;;;;;;;;;;;;;;;12.35;100.00;96847.84;5066633;28;19999;-74
2023/10/11 01:54:55;;;;;;;;;;;;;;;12.34;100.00;96846.22;5066616;28;19940;-75
2023/10/11 01:57:25;;;;;;;;;;;;;;;12.32;100.00;96843.00;5066549;28;19931;-76
2023/10/11 01:59:52;;;;;;;;;;;;;;;12.33;100.00;96849.09;5066675;28;19939;-75
2023/10/11 02:02:18;;;;;;;;;;;;;;;12.31;100.00;96841.41;5066518;28;19940;-74
2023/10/11 02:04:44;;;;;;;;;;;;;;;12.31;100.00;96837.97;5067165;28;19958;-74
2023/10/11 02:07:10;;;;;;;;;;;;;;;12.29;100.00;96838.19;5066636;28;19970;-74
2023/10/11 02:09:36;;;;;;;;;;;;;;;12.28;100.00;96836.56;5066402;28;20012;-74
2023/10/11 02:12:06;;;;;;;;;;;;;;;12.24;100.00;96835.44;5067108;28;19936;-75
2023/10/11 02:14:32;;;;;;;;;;;;;;;12.21;100.00;96835.84;5066256;28;19941;-74
2023/10/11 02:16:59;;;;;;;;;;;;;;;12.17;100.00;96832.03;5066289;28;20247;-75
2023/10/11 02:19:25;;;;;;;;;;;;;;;12.15;100.00;96836.72;5066169;28;19932;-75
2023/10/11 02:21:53;;;;;;;;;;;;;;;12.13;100.00;96838.75;5066385;28;19968;-75
2023/10/11 02:24:19;;;;;;;;;;;;;;;12.11;100.00;96831.09;5066034;28;19951;-75
2023/10/11 02:26:49;;;;;;;;;;;;;;;12.11;100.00;96841.59;5066030;28;20005;-75
2023/10/11 02:29:22;;;;;;;;;;;;;;;12.10;100.00;96841.84;5066786;28;19939;-75
2023/10/11 02:31:52;;;;;;;;;;;;;;;12.10;100.00;96841.84;5066699;28;19938;-75
2023/10/11 02:34:18;;;;;;;;;;;;;;;12.09;100.00;96837.59;5066584;28;19952;-75
2023/10/11 02:36:45;;;;;;;;;;;;;;;12.07;100.00;96832.53;5066647;28;20110;-74
2023/10/11 02:39:17;;;;;;;;;;;;;;;12.08;100.00;96838.63;5065816;28;19979;-75
2023/10/11 02:41:47;;;;;;;;;;;;;;;12.06;100.00;96833.56;5065326;28;19960;-74
2023/10/11 02:44:13;;;;;;;;;;;;;;;12.05;100.00;96834.56;5066153;28;19942;-74
2023/10/11 02:46:42;;;;;;;;;;;;;;;12.05;100.00;96833.78;5065531;28;20121;-74
2023/10/11 02:49:21;;;;;;;;;;;;;;;12.04;100.00;96829.56;5066201;28;19992;-74
2023/10/11 02:51:55;;;;;;;;;;;;;;;12.01;100.00;96822.09;5066427;28;19936;-75
2023/10/11 02:54:24;;;;;;;;;;;;;;;11.97;100.00;96827.00;5066326;28;19942;-77
2023/10/11 02:56:52;;;;;;;;;;;;;;;11.93;100.00;96815.31;5065455;28;20148;-75
2023/10/11 02:59:19;;;;;;;;;;;;;;;11.90;100.00;96824.41;5066202;28;19937;-76
2023/10/11 03:01:46;;;;;;;;;;;;;;;11.87;100.00;96821.41;5066121;28;19934;-74
2023/10/11 03:04:15;;;;;;;;;;;;;;;11.83;100.00;96822.84;5066023;28;19952;-74
2023/10/11 03:06:49;;;;;;;;;;;;;;;11.82;100.00;96829.09;5065273;28;19984;-75
2023/10/11 03:09:18;;;;;;;;;;;;;;;11.80;100.00;96821.47;5065261;28;20107;-75
2023/10/11 03:11:45;;;;;;;;;;;;;;;11.81;100.00;96825.69;5065138;28;19934;-76
2023/10/11 03:14:14;;;;;;;;;;;;;;;11.81;100.00;96822.25;5065059;28;19969;-75
2023/10/11 03:16:42;;;;;;;;;;;;;;;11.79;100.00;96822.47;5065359;28;20120;-77
2023/10/11 03:19:10;;;;;;;;;;;;;;;11.79;100.00;96825.09;5065010;28;20105;-76
2023/10/11 03:21:36;;;;;;;;;;;;;;;11.79;100.00;96825.91;5065002;28;19938;-76
2023/10/11 03:24:05;;;;;;;;;;;;;;;11.78;100.00;96826.94;5065406;28;19956;-76
2023/10/11 03:26:31;;;;;;;;;;;;;;;11.79;100.00;96822.47;5064838;28;19934;-76
2023/10/11 03:28:57;;;;;;;;;;;;;;;11.78;100.00;96816.41;5064787;28;19940;-76
2023/10/11 03:31:30;;;;;;;;;;;;;;;11.78;100.00;96813.78;5064767;28;19948;-76
2023/10/11 03:33:56;;;;;;;;;;;;;;;11.76;100.00;96813.19;5064652;28;19926;-75
2023/10/11 03:36:29;;;;;;;;;;;;;;;11.74;100.00;96810.00;5064712;28;19935;-76
2023/10/11 03:38:55;;;;;;;;;;;;;;;11.71;100.00;96814.84;5064805;28;19940;-76
2023/10/11 03:41:29;;;;;;;;;;;;;;;11.69;100.00;96816.91;5065132;28;19934;-75
2023/10/11 03:44:09;;;;;;;;;;;;;;;11.68;100.00;96817.94;5065074;28;20229;-75
2023/10/11 03:46:35;;;;;;;;;;;;;;;11.65;100.00;96818.34;5064898;28;19939;-75
2023/10/11 03:51:54;;;;;;;;;;;;;;;11.60;100.00;96826.88;5041113;28;19936;-74
2023/10/11 03:54:22;;;;;;;;;;;;;;;11.59;100.00;96822.66;5064500;28;20237;-74
2023/10/11 03:56:55;;;;;;;;;;;;;;;11.58;100.00;96824.47;5064389;28;19936;-74
2023/10/11 03:59:25;;;;;;;;;;;;;;;11.56;100.00;96825.69;5064628;28;19934;-74
2023/10/11 04:01:51;;;;;;;;;;;;;;;11.54;100.00;96815.41;5065049;28;19946;-75
2023/10/11 04:04:19;;;;;;;;;;;;;;;11.53;100.00;96821.69;5064184;28;20137;-73
2023/10/11 04:06:51;;;;;;;;;;;;;;;11.51;100.00;96815.03;5063027;28;19984;-74
2023/10/11 04:12:24;;;;;;;;;;;;;;;11.47;100.00;96811.22;5041707;28;19939;-73
2023/10/11 04:14:51;;;;;;;;;;;;;;;11.44;100.00;96814.28;5064813;28;20117;-76
2023/10/11 04:19:47;;;;;;;;;;;;;;;11.39;100.00;96809.66;5063904;28;20245;-74
2023/10/11 04:22:16;;;;;;;;;;;;;;;11.39;100.00;96812.28;5063955;28;19936;-74
2023/10/11 04:24:43;;;;;;;;;;;;;;;11.39;100.00;96807.03;5063841;28;19950;-74
2023/10/11 04:29:50;;;;;;;;;;;;;;;11.38;100.00;96808.03;5063944;28;20122;-74
2023/10/11 04:32:40;;;;;;;;;;;;;;;11.36;100.00;96803.03;5063840;28;20129;-73
2023/10/11 04:35:02;;;;;;;;;;;;;;;11.37;100.00;96809.88;5064193;28;20138;-74
2023/10/11 04:37:30;;;;;;;;;;;;;;;11.38;100.00;96818.53;5063830;28;20131;-74
2023/10/11 04:40:00;;;;;;;;;;;;;;;11.37;100.00;96824.84;5063797;28;19936;-74
2023/10/11 04:42:29;;;;;;;;;;;;;;;11.35;100.00;96816.38;5063758;28;19939;-75
2023/10/11 04:44:56;;;;;;;;;;;;;;;11.34;100.00;96812.13;5063653;28;20243;-75
2023/10/11 04:47:27;;;;;;;;;;;;;;;11.31;100.00;96815.19;5063538;28;19968;-75
2023/10/11 04:49:54;;;;;;;;;;;;;;;11.27;100.00;96816.63;5064110;28;20100;-74
2023/10/11 04:52:35;;;;;;;;;;;;;;;11.27;100.00;96816.63;5064495;28;19934;-73
2023/10/11 04:55:12;;;;;;;;;;;;;;;11.26;100.00;96817.66;5064155;28;20133;-75
2023/10/11 04:57:49;;;;;;;;;;;;;;;11.26;100.00;96818.44;5064171;28;19942;-74
2023/10/11 05:00:18;;;;;;;;;;;;;;;11.26;100.00;96810.56;5064193;28;20201;-73
2023/10/11 05:02:50;;;;;;;;;;;;;;;11.25;100.00;96819.44;5063832;28;20228;-74
2023/10/11 05:05:19;;;;;;;;;;;;;;;11.26;100.00;96817.66;5066628;28;19947;-74
2023/10/11 05:07:46;;;;;;;;;;;;;;;11.26;100.00;96823.69;5067454;28;20105;-74
2023/10/11 05:12:47;;;;;;;;;;;;;;;11.25;100.00;96819.44;5067434;28;19938;-74
2023/10/11 05:15:15;;;;;;;;;;;;;;;11.25;100.00;96819.44;5067360;28;20240;-75
2023/10/11 05:17:42;;;;;;;;;;;;;;;11.22;100.00;96817.25;5067331;28;20210;-75
2023/10/11 05:20:22;;;;;;;;;;;;;;;11.21;100.00;96822.72;5067199;28;19944;-74
2023/10/11 05:22:49;;;;;;;;;;;;;;;11.15;100.00;96817.31;5067797;28;20000;-74
2023/10/11 05:27:49;;;;;;;;;;;;;;;11.10;100.00;96824.19;5067918;28;19943;-75
2023/10/11 05:30:32;;;;;;;;;;;;;;;11.08;100.00;96819.16;5067970;28;19937;-74
2023/10/11 05:52:13;;;;;;;;;;;;;;;11.14;100.00;96825.38;5066603;28;20134;-74
2023/10/11 05:54:45;;;;;;;;;;;;;;;11.16;100.00;96823.34;5066647;28;19952;-74
2023/10/11 05:57:13;;;;;;;;;;;;;;;11.18;100.00;96827.38;5066855;28;20212;-73
2023/10/11 05:59:42;;;;;;;;;;;;;;;11.20;100.00;96821.91;5066965;28;19938;-74
2023/10/11 06:02:13;;;;;;;;;;;;;;;11.25;100.00;96821.28;5066338;28;20121;-74
2023/10/11 06:04:39;;;;;;;;;;;;;;;11.25;100.00;96822.06;5067222;28;19958;-74
2023/10/11 06:07:06;;;;;;;;;;;;;;;11.28;100.00;96829.53;5066400;28;20226;-74
2023/10/11 06:09:39;;;;;;;;;;;;;;;11.32;100.00;96827.31;5066276;28;19938;-74
2023/10/11 06:12:09;;;;;;;;;;;;;;;11.36;100.00;96825.88;5066577;28;19940;-74
2023/10/11 06:14:36;;;;;;;;;;;;;;;11.52;100.00;96822.69;5067150;28;19942;-74
2023/10/11 06:17:05;;;;;;;;;;;;;;;11.79;100.00;96820.63;5065241;28;19937;-74
2023/10/11 06:19:31;;;;;;;;;;;;;;;12.07;100.00;96816.75;5066177;28;19936;-74
2023/10/11 06:21:57;;;;;;;;;;;;;;;12.34;100.00;96811.22;5066145;28;19937;-74
2023/10/11 06:24:30;;;;;;;;;;;;;;;12.59;100.00;96805.88;5065983;28;20123;-74
2023/10/11 06:26:56;;;;;;;;;;;;;;;12.84;100.00;96805.75;5065972;28;19950;-74
2023/10/11 06:29:29;;;;;;;;;;;;;;;13.07;100.00;96791.06;5065961;28;19953;-75
2023/10/11 06:31:55;;;;;;;;;;;;;;;13.25;100.00;96777.00;5066731;28;19937;-75
2023/10/11 06:34:26;;;;;;;;;;;;;;;13.39;99.58;96773.19;5065744;28;20171;-74
2023/10/11 06:36:53;;;;;;;;;;;;;;;13.53;99.88;96776.41;5066587;28;19935;-75
2023/10/11 06:42:14;;;;;;;;;;;;;;;13.80;97.40;96759.09;5066554;28;19928;-75
2023/10/11 06:44:40;;;;;;;;;;;;;;;13.96;95.51;96747.06;5066443;28;19958;-74
2023/10/11 06:47:06;;;;;;;;;;;;;;;14.09;96.48;96751.28;5065426;28;19965;-74
2023/10/11 06:49:40;;;;;;;;;;;;;;;14.25;95.99;96754.22;5066056;28;19937;-73
2023/10/11 06:52:11;;;;;;;;;;;;;;;14.39;96.07;96759.00;5066024;28;19932;-73
2023/10/11 06:54:38;;;;;;;;;;;;;;;14.50;96.27;96761.84;5065359;28;20123;-73
2023/10/11 06:57:07;;;;;;;;;;;;;;;14.56;91.27;96727.41;5065470;28;19933;-74
2023/10/11 06:59:33;;;;;;;;;;;;;;;14.65;91.87;96735.75;5064039;28;20135;-73
2023/10/11 07:02:02;;;;;;;;;;;;;;;14.71;92.97;96745.38;5065904;28;19943;-73
2023/10/11 07:04:36;;;;;;;;;;;;;;;14.80;90.22;96725.47;5065240;28;20144;-75
2023/10/11 07:07:07;;;;;;;;;;;;;;;14.88;89.42;96726.13;5065354;28;19935;-75
2023/10/11 07:09:39;;;;;;;;;;;;;;;14.95;89.56;96732.84;5065275;28;19934;-75
2023/10/11 07:14:49;;;;;;;;;;;;;;;14.99;85.18;96699.66;5065907;28;19941;-75
2023/10/11 07:17:20;;;;;;;;;;;;;;;15.07;88.40;96729.34;5065839;28;19939;-76
2023/10/11 07:19:50;;;;;;;;;;;;;;;15.14;87.83;96720.22;5065903;28;19946;-76
2023/10/11 07:22:18;;;;;;;;;;;;;;;15.24;86.59;96719.56;5064934;28;19941;-75
2023/10/11 07:24:45;;;;;;;;;;;;;;;15.34;87.85;96725.00;5065068;28;19939;-76
2023/10/11 07:27:26;;;;;;;;;;;;;;;15.44;85.13;96703.22;5064833;28;19951;-75
2023/10/11 07:29:54;;;;;;;;;;;;;;;15.55;86.86;96722.69;5064906;28;19930;-75
2023/10/11 07:32:21;;;;;;;;;;;;;;;15.62;86.04;96716.19;5065302;28;19940;-75
2023/10/11 07:34:48;;;;;;;;;;;;;;;15.69;86.20;96728.44;5065230;28;20122;-76
2023/10/11 07:37:18;;;;;;;;;;;;;;;15.76;87.70;96737.81;5064664;28;19933;-76
2023/10/11 07:39:47;;;;;;;;;;;;;;;15.83;86.24;96724.41;5064657;28;20225;-76
2023/10/11 07:42:18;;;;;;;;;;;;;;;15.88;84.72;96721.84;5065151;28;20204;-76
2023/10/11 07:44:50;;;;;;;;;;;;;;;15.92;84.98;96722.97;5065132;28;19936;-77
2023/10/11 07:47:16;;;;;;;;;;;;;;;15.96;87.42;96745.22;5064948;28;19962;-75
2023/10/11 07:49:42;;;;;;;;;;;;;;;16.00;87.08;96746.34;5065370;28;19949;-76
2023/10/11 07:52:09;;;;;;;;;;;;;;;16.11;86.96;96741.19;5064972;28;19944;-76
2023/10/11 07:54:39;;;;;;;;;;;;;;;16.23;84.54;96729.44;5064385;28;19941;-76
2023/10/11 07:57:12;;;;;;;;;;;;;;;16.36;85.03;96733.53;5065270;28;19942;-77
2023/10/11 07:59:39;;;;;;;;;;;;;;;16.43;84.04;96730.69;5064416;28;19964;-76
2023/10/11 08:02:26;;;;;;;;;;;;;;;16.50;83.96;96736.59;5064302;28;19934;-76
2023/10/11 08:04:57;;;;;;;;;;;;;;;16.60;84.78;96739.34;5064758;28;20114;-76
2023/10/11 08:07:23;;;;;;;;;;;;;;;16.67;84.86;96741.78;5064487;28;19941;-76
2023/10/11 08:09:52;;;;;;;;;;;;;;;16.78;82.83;96726.84;5064209;28;20199;-76
2023/10/11 08:12:21;;;;;;;;;;;;;;;16.87;83.23;96725.34;5064421;28;20099;-76
2023/10/11 08:14:46;;;;;;;;;;;;;;;16.99;83.14;96733.16;5064169;28;19933;-76
2023/10/11 08:17:16;;;;;;;;;;;;;;;17.13;84.01;96733.50;5064087;28;20317;-76
2023/10/11 08:19:44;;;;;;;;;;;;;;;17.20;80.95;96724.31;5064096;28;20133;-75
2023/10/11 08:22:16;;;;;;;;;;;;;;;17.25;83.58;96742.09;5062906;28;19942;-76
2023/10/11 08:24:46;;;;;;;;;;;;;;;17.27;84.33;96752.47;5064772;28;19939;-76
2023/10/11 08:27:14;;;;;;;;;;;;;;;17.35;83.97;96749.34;5064260;28;20121;-76
2023/10/11 08:29:42;;;;;;;;;;;;;;;17.41;84.15;96757.09;5063972;28;19939;-76
2023/10/11 08:32:12;;;;;;;;;;;;;;;17.47;83.52;96749.16;5064469;28;20098;-76
2023/10/11 08:34:39;;;;;;;;;;;;;;;17.50;83.80;96754.75;5063817;28;19962;-76
2023/10/11 08:37:08;;;;;;;;;;;;;;;17.56;84.85;96758.25;5063829;28;19945;-76
2023/10/11 08:39:41;;;;;;;;;;;;;;;17.60;86.04;96768.09;5067414;28;20245;-76
2023/10/11 08:42:17;;;;;;;;;;;;;;;17.65;84.96;96762.00;5070538;28;19933;-76
2023/10/11 08:44:44;;;;;;;;;;;;;;;17.70;85.25;96759.41;5071298;28;20235;-76
2023/10/11 08:47:13;;;;;;;;;;;;;;;17.76;85.58;96766.31;5070281;28;19968;-76
2023/10/11 08:49:46;;;;;;;;;;;;;;;17.78;85.24;96752.81;5070981;28;19941;-76
2023/10/11 08:52:17;;;;;;;;;;;;;;;17.79;83.03;96755.22;5071211;28;19938;-76
2023/10/11 08:54:44;;;;;;;;;;;;;;;17.80;86.91;96772.72;5070850;28;19944;-76
2023/10/11 08:57:13;;;;;;;;;;;;;;;17.83;83.19;96758.19;5071147;28;19930;-76
2023/10/11 08:59:48;;;;;;;;;;;;;;;17.89;86.96;96773.09;5069982;28;20352;-75
2023/10/11 09:02:17;;;;;;;;;;;;;;;17.93;84.28;96763.56;5070369;28;19937;-76
2023/10/11 09:05:06;;;;;;;;;;;;;;;18.00;85.13;96765.97;5070258;28;19934;-76
2023/10/11 09:07:37;;;;;;;;;;;;;;;18.07;83.92;96761.22;5070290;28;19947;-76
2023/10/11 09:10:21;;;;;;;;;;;;;;;18.13;85.17;96768.16;5070230;28;19936;-75
2023/10/11 09:12:49;;;;;;;;;;;;;;;18.21;87.02;96778.28;5070843;28;19956;-76
2023/10/11 09:15:16;;;;;;;;;;;;;;;18.29;84.38;96753.13;5070703;28;20120;-76
2023/10/11 09:17:41;;;;;;;;;;;;;;;18.36;83.54;96750.22;5070973;28;19938;-76
2023/10/11 09:20:39;;;;;;;;;;;;;;;18.42;84.28;96747.31;5070178;28;19940;-77
2023/10/11 09:23:06;;;;;;;;;;;;;;;18.56;86.75;96757.44;5070145;28;19933;-77
2023/10/11 09:25:41;;;;;;;;;;;;;;;18.67;85.46;96753.75;5070048;28;19953;-77
2023/10/11 09:28:16;;;;;;;;;;;;;;;18.75;83.40;96742.63;5070092;28;19939;-76
2023/10/11 09:30:44;;;;;;;;;;;;;;;18.85;86.45;96752.50;5070451;28;19937;-76
2023/10/11 09:33:19;;;;;;;;;;;;;;;18.94;83.48;96742.13;5070050;28;20240;-77
2023/10/11 09:35:50;;;;;;;;;;;;;;;19.02;82.44;96736.31;5070086;28;20012;-76
2023/10/11 09:38:19;;;;;;;;;;;;;;;19.09;83.16;96731.53;5070586;28;19993;-76
2023/10/11 09:40:45;;;;;;;;;;;;;;;19.15;82.17;96733.13;5070039;28;19943;-76
2023/10/11 09:43:16;;;;;;;;;;;;;;;19.22;82.51;96738.19;5070043;28;19949;-77
2023/10/11 09:45:44;;;;;;;;;;;;;;;19.26;80.06;96737.38;5070455;28;19953;-77
2023/10/11 09:48:17;;;;;;;;;;;;;;;19.32;83.02;96754.13;5070085;28;19989;-77
2023/10/11 09:50:43;;;;;;;;;;;;;;;19.41;81.78;96755.19;5067920;28;19941;-79
2023/10/11 09:53:12;;;;;;;;;;;;;;;19.51;78.63;96748.25;5067559;28;19942;-76
2023/10/11 09:55:43;;;;;;;;;;;;;;;19.59;80.60;96756.53;5066711;28;19927;-76
2023/10/11 09:58:25;;;;;;;;;;;;;;;19.71;81.54;96768.78;5067180;28;19941;-76
2023/10/11 10:00:59;;;;;;;;;;;;;;;19.80;78.72;96751.19;5066593;28;19939;-75
2023/10/11 10:03:25;;;;;;;;;;;;;;;19.93;79.49;96747.16;5067178;28;19933;-74
2023/10/11 10:06:24;;;;;;;;;;;;;;;20.05;79.94;96758.31;5066406;28;19974;-75
2023/10/11 10:09:34;;;;;;;;;;;;;;;20.18;77.41;96741.78;5065859;28;20101;-75
2023/10/11 10:12:20;;;;;;;;;;;;;;;20.33;77.28;96740.91;5051134;28;19953;-75
2023/10/11 10:14:50;;;;;;;;;;;;;;;20.48;76.95;96743.50;5066849;28;19936;-74
2023/10/11 10:17:16;;;;;;;;;;;;;;;20.59;75.68;96738.94;5066230;28;19933;-75
2023/10/11 10:19:43;;;;;;;;;;;;;;;20.71;75.25;96743.16;5066158;28;19934;-75
2023/10/11 10:22:10;;;;;;;;;;;;;;;20.81;71.06;96733.22;5066176;28;19934;-75
2023/10/11 10:24:36;;;;;;;;;;;;;;;20.92;73.56;96731.28;5066174;28;19941;-75
2023/10/11 10:27:34;;;;;;;;;;;;;;;21.02;72.04;96725.06;5066068;28;20004;-75
2023/10/11 10:30:00;;;;;;;;;;;;;;;21.15;75.81;96735.13;5066566;28;19944;-76
2023/10/11 10:32:26;;;;;;;;;;;;;;;21.27;73.88;96730.22;5066575;28;20145;-75
2023/10/11 10:35:18;;;;;;;;;;;;;;;21.39;73.26;96729.84;5066208;28;19942;-76
2023/10/11 10:37:50;;;;;;;;;;;;;;;21.50;67.76;96722.56;5066489;28;19940;-75
2023/10/11 10:40:26;;;;;;;;;;;;;;;21.59;72.88;96746.81;5065826;28;19930;-75
2023/10/11 10:43:19;;;;;;;;;;;;;;;21.68;73.27;96747.78;5065899;28;19943;-75
2023/10/11 10:45:47;;;;;;;;;;;;;;;21.81;73.56;96735.63;5066312;28;19965;-75
2023/10/11 10:48:14;;;;;;;;;;;;;;;21.93;70.81;96729.91;5065712;28;20260;-75
2023/10/11 10:50:47;;;;;;;;;;;;;;;22.08;74.61;96737.75;5065729;28;20131;-75
2023/10/11 10:53:14;;;;;;;;;;;;;;;22.26;72.62;96726.34;5065903;28;19932;-76
2023/10/11 10:55:42;;;;;;;;;;;;;;;22.46;71.04;96717.25;5065568;28;19979;-76
2023/10/11 10:58:09;;;;;;;;;;;;;;;22.69;62.75;96710.25;5065168;28;19947;-76
2023/10/11 11:00:40;;;;;;;;;;;;;;;22.97;65.53;96720.28;5066337;28;19939;-76
2023/10/11 11:03:19;;;;;;;;;;;;;;;23.24;61.80;96708.94;5065095;28;19956;-76
2023/10/11 11:05:57;;;;;;;;;;;;;;;23.51;64.75;96726.94;5064203;28;20112;-76
2023/10/11 11:08:27;;;;;;;;;;;;;;;23.73;59.13;96717.44;5065988;28;19959;-76
2023/10/11 11:11:00;;;;;;;;;;;;;;;23.87;54.93;96711.03;5065843;28;19998;-76
2023/10/11 11:13:30;;;;;;;;;;;;;;;24.02;55.19;96715.34;5065296;28;20224;-76
2023/10/11 11:15:56;;;;;;;;;;;;;;;24.19;59.97;96717.41;5065156;28;19934;-76
2023/10/11 11:18:34;;;;;;;;;;;;;;;24.33;57.82;96717.38;5065430;28;19935;-76
2023/10/11 11:21:17;;;;;;;;;;;;;;;24.52;54.16;96712.72;5065904;28;19959;-76
2023/10/11 11:23:44;;;;;;;;;;;;;;;24.66;54.40;96711.91;5065386;28;19950;-76
2023/10/11 11:26:15;;;;;;;;;;;;;;;24.75;52.66;96711.97;5064933;28;19962;-76
2023/10/11 11:28:42;;;;;;;;;;;;;;;24.85;49.96;96711.75;5065204;28;19937;-76
2023/10/11 11:31:13;;;;;;;;;;;;;;;24.96;51.64;96713.09;5064983;28;19937;-76
2023/10/11 11:36:31;;;;;;;;;;;;;;;25.16;49.79;96700.28;5065383;28;19930;-76
2023/10/11 11:39:17;;;;;;;;;;;;;;;25.18;48.77;96704.25;5065346;28;19953;-78
2023/10/11 11:41:47;;;;;;;;;;;;;;;25.23;51.63;96709.50;5065607;28;19945;-76
2023/10/11 11:44:19;;;;;;;;;;;;;;;25.33;50.82;96700.44;5065230;28;19937;-76
2023/10/11 11:46:48;;;;;;;;;;;;;;;25.36;47.40;96699.81;5064451;28;19955;-76
2023/10/11 11:49:21;;;;;;;;;;;;;;;25.42;48.68;96701.25;5065116;28;19943;-76
2023/10/11 11:51:50;;;;;;;;;;;;;;;25.49;49.06;96706.19;5065143;28;19947;-76
2023/10/11 11:54:20;;;;;;;;;;;;;;;25.54;48.71;96705.28;5064430;28;19961;-77
2023/10/11 11:56:46;;;;;;;;;;;;;;;25.55;50.45;96702.28;5064414;28;19937;-76
2023/10/11 11:59:17;;;;;;;;;;;;;;;25.49;49.74;96698.13;5064389;28;19939;-76
2023/10/11 12:01:49;;;;;;;;;;;;;;;25.47;49.68;96693.09;5064964;28;19940;-79
2023/10/11 12:04:24;;;;;;;;;;;;;;;25.50;48.75;96692.47;5079819;28;19934;-77
2023/10/11 12:07:05;;;;;;;;;;;;;;;25.53;49.95;96683.00;5065072;28;19957;-76
2023/10/11 12:09:34;;;;;;;;;;;;;;;25.57;48.10;96683.16;5064970;28;19938;-76
2023/10/11 12:12:05;;;;;;;;;;;;;;;25.55;47.88;96674.63;5064187;28;20231;-79
2023/10/11 12:14:37;;;;;;;;;;;;;;;25.51;47.79;96680.63;5063423;28;20110;-78
2023/10/11 12:17:09;;;;;;;;;;;;;;;25.48;47.67;96683.13;5064655;28;19938;-78
2023/10/11 12:19:40;;;;;;;;;;;;;;;25.50;47.22;96675.56;5064637;28;20227;-82
2023/10/11 12:22:07;;;;;;;;;;;;;;;25.55;49.11;96678.09;5064016;28;19945;-81
2023/10/11 12:24:34;;;;;;;;;;;;;;;25.60;49.41;96674.47;5064071;28;19933;-80
2023/10/11 12:27:00;;;;;;;;;;;;;;;25.61;47.93;96674.19;5063970;28;19950;-81
2023/10/11 12:29:28;;;;;;;;;;;;;;;25.63;48.75;96666.59;5064053;28;19957;-81
2023/10/11 12:31:55;;;;;;;;;;;;;;;25.69;48.44;96661.91;5062936;28;19931;-81
2023/10/11 12:34:27;;;;;;;;;;;;;;;25.75;48.88;96662.56;5064443;28;19948;-80
2023/10/11 12:36:53;;;;;;;;;;;;;;;25.76;48.15;96666.81;5063953;28;19983;-79
2023/10/11 12:39:24;;;;;;;;;;;;;;;25.78;46.13;96667.28;5064707;28;20102;-79
2023/10/11 12:41:51;;;;;;;;;;;;;;;25.80;47.23;96659.72;5064193;28;19939;-79
2023/10/11 12:44:17;;;;;;;;;;;;;;;25.81;45.92;96654.03;5063749;28;19933;-79
2023/10/11 12:46:44;;;;;;;;;;;;;;;25.84;45.58;96656.09;5062341;28;20248;-79
2023/10/11 12:49:13;;;;;;;;;;;;;;;25.87;47.50;96655.50;5064621;28;20239;-77
2023/10/11 12:51:47;;;;;;;;;;;;;;;25.94;45.88;96663.13;5063775;28;19935;-76
2023/10/11 12:54:16;;;;;;;;;;;;;;;25.98;45.57;96650.66;5064372;28;19938;-76
2023/10/11 12:56:44;;;;;;;;;;;;;;;26.00;45.44;96661.88;5063640;28;19941;-72
2023/10/11 12:59:12;;;;;;;;;;;;;;;26.00;46.72;96664.56;5063606;28;19931;-73
2023/10/11 13:01:52;;;;;;;;;;;;;;;26.03;45.21;96658.56;5064431;28;19932;-72
2023/10/11 13:04:23;;;;;;;;;;;;;;;26.07;45.63;96651.44;5063733;28;20320;-72
2023/10/11 13:06:50;;;;;;;;;;;;;;;26.05;44.92;96645.59;5064233;28;19952;-73
2023/10/11 13:09:16;;;;;;;;;;;;;;;26.07;45.67;96646.06;5063536;28;19941;-72
2023/10/11 13:11:46;;;;;;;;;;;;;;;26.07;44.24;96645.28;5063528;28;20121;-73
2023/10/11 13:14:18;;;;;;;;;;;;;;;26.05;44.35;96645.59;5064059;28;19930;-73
2023/10/11 13:16:45;;;;;;;;;;;;;;;26.08;45.48;96650.34;5063763;28;19935;-75
2023/10/11 13:19:17;;;;;;;;;;;;;;;26.12;46.77;96640.56;5063493;28;19937;-72
2023/10/11 13:21:44;;;;;;;;;;;;;;;26.09;44.67;96643.88;5063560;28;19936;-72
2023/10/11 13:24:12;;;;;;;;;;;;;;;26.05;44.06;96644.81;5063430;28;19942;-72
2023/10/11 13:26:43;;;;;;;;;;;;;;;26.05;44.41;96645.59;5066595;28;19965;-72
2023/10/11 13:29:10;;;;;;;;;;;;;;;26.06;46.30;96646.38;5067219;28;19939;-73
2023/10/11 13:31:40;;;;;;;;;;;;;;;26.07;45.64;96642.59;5067108;28;19939;-77
2023/10/11 13:34:06;;;;;;;;;;;;;;;26.05;45.63;96637.53;5067725;28;19932;-76
2023/10/11 13:36:33;;;;;;;;;;;;;;;26.04;46.17;96637.84;5067081;28;19945;-76
2023/10/11 13:39:02;;;;;;;;;;;;;;;25.99;44.62;96636.09;5067758;28;19945;-78
2023/10/11 13:41:30;;;;;;;;;;;;;;;25.96;45.14;96641.31;5067507;28;19932;-76